Terminal Aerodrome Forecast
Issued by NWS

Home | Current Version | Previous Version | Text Only | Print | Product List | Glossary On
Versions: 1 2 3 4 5 6 7 8 9 10 11 12 13 14 15 16 17 18 19 20 21 22 23 24 25 26
000
FTUS44 KOUN 300526
TAFHBR
TAF
KHBR 300526Z 3006/3106 02009KT P6SM SCT080 BKN120
     FM301500 06009KT P6SM SCT120 PROB30 3020/3102 3SM -TSRA
      BKN030CB=

USA.gov is the U.S. government's official web portal to all federal, state and local government web resources and services.